Weather Data

Pearl Creek Farm: 8878 N Farm Road 75, Walnut Grove MO 65770

<== Previous Day (Wednesday 02 Sep 2015) | Next Day (Friday 04 Sep 2015) ==>

Summary Precipitation Data For Thursday 03 September 2015

ElementValueUnits
Precipitation0"
Notes(none)
SourcePearl Creek Farm

Summary Temperature Data For Thursday 03 September 2015

ElementValueUnits
High Temperature89 oF
Low Temperature68 oF
Average Temperature77 oF
High Humidity93 %
Low Humidity60 %
Average Humidity81 %
SourcePearl Creek Farm

Detail Temperature Data For Thursday 03 September 2015

Date / TimeTemp (F)RH (%)Dew Pt (F)Report Date / TimeSource
2015-09-03 00:00:00 72 88 68.2 2015-09-07 20:25:01 Pearl Creek Farm
2015-09-03 00:30:00 72 88 68.2 2015-09-07 20:25:01 Pearl Creek Farm
2015-09-03 01:00:00 71 89 67.4 2015-09-07 20:25:01 Pearl Creek Farm
2015-09-03 01:30:00 70 89 66.6 2015-09-07 20:25:01 Pearl Creek Farm
2015-09-03 02:00:00 70 90 66.8 2015-09-07 20:25:01 Pearl Creek Farm
2015-09-03 02:30:00 69 90 65.8 2015-09-07 20:25:01 Pearl Creek Farm
2015-09-03 03:00:00 69 90 65.9 2015-09-07 20:25:01 Pearl Creek Farm
2015-09-03 03:30:00 69 90 65.9 2015-09-07 20:25:01 Pearl Creek Farm
2015-09-03 04:00:00 69 90 65.9 2015-09-07 20:25:01 Pearl Creek Farm
2015-09-03 04:30:00 69 90 65.9 2015-09-07 20:25:01 Pearl Creek Farm
2015-09-03 05:00:00 68 90 65.0 2015-09-07 20:25:01 Pearl Creek Farm
2015-09-03 05:30:00 68 91 65.3 2015-09-07 20:25:01 Pearl Creek Farm
2015-09-03 06:00:00 68 91 65.3 2015-09-07 20:25:01 Pearl Creek Farm
2015-09-03 06:30:00 68 91 65.1 2015-09-07 20:25:01 Pearl Creek Farm
2015-09-03 07:00:00 68 91 65.3 2015-09-07 20:25:01 Pearl Creek Farm
2015-09-03 07:30:00 68 92 65.4 2015-09-07 20:25:01 Pearl Creek Farm
2015-09-03 08:00:00 69 93 66.7 2015-09-07 20:25:01 Pearl Creek Farm
2015-09-03 08:30:00 72 91 69.1 2015-09-07 20:25:01 Pearl Creek Farm
2015-09-03 09:00:00 74 89 70.4 2015-09-07 20:25:01 Pearl Creek Farm
2015-09-03 09:30:00 75 87 70.7 2015-09-07 20:25:01 Pearl Creek Farm
2015-09-03 10:00:00 77 86 72.3 2015-09-07 20:25:01 Pearl Creek Farm
2015-09-03 10:30:00 79 84 73.6 2015-09-07 20:25:01 Pearl Creek Farm
2015-09-03 11:00:00 81 78 73.5 2015-09-07 20:25:01 Pearl Creek Farm
2015-09-03 11:30:00 82 76 73.5 2015-09-07 20:25:01 Pearl Creek Farm
2015-09-03 12:00:00 84 73 74.4 2015-09-07 20:25:01 Pearl Creek Farm
2015-09-03 12:30:00 85 71 74.3 2015-09-07 20:25:01 Pearl Creek Farm
2015-09-03 13:00:00 86 68 74.0 2015-09-07 20:25:01 Pearl Creek Farm
2015-09-03 13:30:00 87 66 74.0 2015-09-07 20:25:01 Pearl Creek Farm
2015-09-03 14:00:00 88 65 74.5 2015-09-07 20:25:01 Pearl Creek Farm
2015-09-03 14:30:00 89 63 74.5 2015-09-07 20:25:01 Pearl Creek Farm
2015-09-03 15:00:00 89 61 73.8 2015-09-07 20:25:01 Pearl Creek Farm
2015-09-03 15:30:00 89 61 73.5 2015-09-07 20:25:01 Pearl Creek Farm
2015-09-03 16:00:00 89 60 73.0 2015-09-07 20:25:01 Pearl Creek Farm
2015-09-03 16:30:00 89 61 73.5 2015-09-07 20:25:01 Pearl Creek Farm
2015-09-03 17:00:00 89 63 74.8 2015-09-07 20:25:01 Pearl Creek Farm
2015-09-03 17:30:00 87 65 73.6 2015-09-07 20:25:01 Pearl Creek Farm
2015-09-03 18:00:00 86 69 74.6 2015-09-07 20:25:01 Pearl Creek Farm
2015-09-03 18:30:00 85 72 74.9 2015-09-07 20:25:01 Pearl Creek Farm
2015-09-03 19:00:00 83 75 74.0 2015-09-07 20:25:01 Pearl Creek Farm
2015-09-03 19:30:00 82 79 74.8 2015-09-07 20:25:01 Pearl Creek Farm
2015-09-03 20:00:00 80 81 73.5 2015-09-07 20:25:01 Pearl Creek Farm
2015-09-03 20:30:00 79 82 73.0 2015-09-07 20:25:01 Pearl Creek Farm
2015-09-03 21:00:00 77 84 71.8 2015-09-07 20:25:01 Pearl Creek Farm
2015-09-03 21:30:00 76 85 71.2 2015-09-07 20:25:01 Pearl Creek Farm
2015-09-03 22:00:00 75 87 70.7 2015-09-07 20:25:01 Pearl Creek Farm
2015-09-03 22:30:00 75 87 70.7 2015-09-07 20:25:01 Pearl Creek Farm
2015-09-03 23:00:00 74 87 69.9 2015-09-07 20:25:01 Pearl Creek Farm
2015-09-03 23:30:00 74 87 69.9 2015-09-07 20:25:01 Pearl Creek Farm

A total of 48 rows are displayed.